Main page
METAR-TAF:

METAR-TAF

Airports :

Orange Municipal Airport

Orange, Massachusetts, United States

latitude: 42-34-18N, longitude: 072-16-39W, elevation: 554 ft

Current weather observation

The report was made 39 minutes ago, at 01:24 UTC
Wind 3 mph from the South/Southeast
Temperature 30°F
Humidity 64%
Pressure 30.34 in. Hg
Visibility: 10 miles
Broken clouds at a height of 2500 ft

METAR: KORE 090124Z AUTO 15003KT 10SM BKN025 M01/M07 A3034 RMK AO2 T10061067

Time: 21:03 (02:03 UTC)


TAF: missing

Weather observations and forecasts of more than 4000 airports (METAR and TAF reports).

The available stations are represented by yellow and red dots on the map.

Hover mouse over dot to see the name of the station.

Then click to see weather observations and forecasts.

To change the map : click on the green buttons with a black cross to zoom in, on the green button with a dash to zoom out, or on the green arrows for adjacent maps.


METAR-TAF: